createdAt,value
2018-08-19T00:02:23.659Z,99896.41
2018-08-19T00:05:06.168Z,99895.61
2018-08-19T00:07:35.767Z,99890.12
2018-08-19T00:10:06.299Z,99893.89
2018-08-19T00:12:38.061Z,99896.23
2018-08-19T00:15:07.967Z,99902.69
2018-08-19T00:17:37.543Z,99907.59
2018-08-19T00:20:09.355Z,99904.06
2018-08-19T00:22:38.912Z,99906.52
2018-08-19T00:25:08.970Z,99905.33
2018-08-19T00:27:39.144Z,99905.37
2018-08-19T00:30:09.827Z,99900.64
2018-08-19T00:32:39.412Z,99901.53
2018-08-19T00:35:08.923Z,99891.42
2018-08-19T00:37:38.572Z,99896.65
2018-08-19T00:40:12.483Z,99888.89
2018-08-19T00:42:43.798Z,99887.66
2018-08-19T00:45:13.748Z,99882.17
2018-08-19T00:47:43.286Z,99879.06
2018-08-19T00:50:12.847Z,99877.49
2018-08-19T00:52:42.507Z,99871.20
2018-08-19T00:55:12.302Z,99880.64
2018-08-19T00:57:44.054Z,99880.02
2018-08-19T01:00:13.769Z,99878.84
2018-08-19T01:02:43.312Z,99886.81
2018-08-19T01:05:12.976Z,99883.42
2018-08-19T01:07:42.798Z,99890.85
2018-08-19T01:10:12.395Z,99893.67
2018-08-19T01:12:42.099Z,99892.59
2018-08-19T01:15:14.675Z,99892.22
2018-08-19T01:17:45.164Z,99888.38
2018-08-19T01:20:19.298Z,99891.14
2018-08-19T01:22:48.979Z,99892.33
2018-08-19T01:25:18.778Z,99888.57
2018-08-19T01:27:48.376Z,99894.49
2018-08-19T01:30:21.384Z,99884.48
2018-08-19T01:32:51.019Z,99882.06
2018-08-19T01:35:26.977Z,99881.53
2018-08-19T01:37:56.530Z,99875.58
2018-08-19T01:40:26.154Z,99878.88
2018-08-19T01:42:55.707Z,99877.59
2018-08-19T01:45:25.275Z,99884.81
2018-08-19T01:47:54.871Z,99883.43
2018-08-19T01:50:24.398Z,99883.16
2018-08-19T01:52:53.911Z,99881.14
2018-08-19T01:55:23.484Z,99884.84
2018-08-19T01:57:53.143Z,99872.34
2018-08-19T02:00:22.679Z,99869.55
2018-08-19T02:03:09.911Z,99875.02
2018-08-19T02:05:39.485Z,99881.13
2018-08-19T02:08:09.109Z,99881.17
2018-08-19T02:10:38.675Z,99877.84
2018-08-19T02:13:08.211Z,99880.09
2018-08-19T02:15:37.791Z,99882.25
2018-08-19T02:18:07.359Z,99877.78
2018-08-19T02:20:38.773Z,99880.70
2018-08-19T02:23:09.765Z,99878.75
2018-08-19T02:25:43.283Z,99873.97
2018-08-19T02:28:13.444Z,99867.10
2018-08-19T02:30:52.718Z,99871.44
2018-08-19T02:33:23.451Z,99878.64
2018-08-19T02:36:01.156Z,99877.34
2018-08-19T02:38:30.782Z,99877.20
2018-08-19T02:41:00.330Z,99889.92
2018-08-19T02:43:29.987Z,99889.98
2018-08-19T02:45:59.592Z,99891.88
2018-08-19T02:48:42.904Z,99892.75
2018-08-19T02:51:14.639Z,99892.06
2018-08-19T02:53:45.444Z,99788.31
2018-08-19T02:56:15.750Z,99894.77
2018-08-19T02:58:46.416Z,99894.34
2018-08-19T03:01:16.974Z,99902.75
2018-08-19T03:03:46.543Z,99904.02
2018-08-19T03:06:16.143Z,99908.05
2018-08-19T03:08:50.755Z,99905.30
2018-08-19T03:11:21.740Z,99900.45
2018-08-19T03:13:51.286Z,99898.40
2018-08-19T03:16:20.868Z,99899.84
2018-08-19T03:18:52.535Z,99898.34
2018-08-19T03:21:22.959Z,99903.06
2018-08-19T03:23:53.740Z,99901.73
2018-08-19T03:26:23.337Z,99908.55
2018-08-19T03:28:52.891Z,99903.86
2018-08-19T03:31:22.445Z,99902.19
2018-08-19T03:33:51.971Z,99899.22
2018-08-19T03:36:21.549Z,99901.47
2018-08-19T03:38:51.336Z,99906.48
2018-08-19T03:41:20.928Z,99912.36
2018-08-19T03:43:54.588Z,99913.14
2018-08-19T03:46:24.147Z,99918.95
2018-08-19T03:48:53.724Z,99915.95
2018-08-19T03:51:23.283Z,99923.78
2018-08-19T03:53:52.832Z,99919.31
2018-08-19T03:56:27.740Z,99929.30
2018-08-19T03:59:01.132Z,99928.82
2018-08-19T04:01:38.935Z,99929.03
2018-08-19T04:04:08.550Z,99932.06
2018-08-19T04:06:39.648Z,99934.31
2018-08-19T04:09:09.223Z,99929.84
2018-08-19T04:11:38.797Z,99933.72
2018-08-19T04:14:24.408Z,99935.66
2018-08-19T04:16:54.351Z,99938.14
2018-08-19T04:19:25.599Z,99946.72
2018-08-19T04:21:58.278Z,99952.72
2018-08-19T04:24:28.225Z,99945.28
2018-08-19T04:26:57.866Z,99950.56
2018-08-19T04:29:28.483Z,99952.38
2018-08-19T04:31:58.075Z,99955.72
2018-08-19T04:34:27.640Z,99951.01
2018-08-19T04:36:57.256Z,99947.55
2018-08-19T04:39:26.925Z,99955.75
2018-08-19T04:41:56.457Z,99953.56
2018-08-19T04:44:26.149Z,99949.14
2018-08-19T04:46:55.704Z,99951.83
2018-08-19T04:49:25.245Z,99961.54
2018-08-19T04:51:54.766Z,99960.02
2018-08-19T04:54:24.384Z,99958.13
2018-08-19T04:56:53.895Z,99962.27
2018-08-19T04:59:23.488Z,99961.28
2018-08-19T05:01:53.040Z,99964.77
2018-08-19T05:04:22.649Z,99965.09
2018-08-19T05:06:52.222Z,99968.33
2018-08-19T05:09:21.836Z,99971.94
2018-08-19T05:11:51.349Z,99973.19
2018-08-19T05:14:20.989Z,99982.06
2018-08-19T05:16:50.477Z,99981.80
2018-08-19T05:19:20.059Z,99985.30
2018-08-19T05:21:49.659Z,99982.22
2018-08-19T05:24:19.150Z,99991.52
2018-08-19T05:26:50.976Z,99987.92
2018-08-19T05:29:20.540Z,99977.50
2018-08-19T05:31:58.047Z,99985.67
2018-08-19T05:34:31.071Z,99979.29
2018-08-19T05:37:00.975Z,99980.05
2018-08-19T05:39:30.659Z,99979.91
2018-08-19T05:42:07.733Z,99981.41
2018-08-19T05:44:38.311Z,99980.94
2018-08-19T05:47:10.868Z,99979.09
2018-08-19T05:49:41.693Z,99982.28
2018-08-19T05:52:16.923Z,99978.48
2018-08-19T05:55:03.759Z,99977.89
2018-08-19T05:57:35.163Z,99971.37
2018-08-19T06:00:10.203Z,99975.81
2018-08-19T06:02:42.659Z,99980.24
2018-08-19T06:05:12.272Z,99972.63
2018-08-19T06:07:41.915Z,99972.28
2018-08-19T06:10:11.435Z,99973.11
2018-08-19T06:12:40.987Z,99974.50
2018-08-19T06:15:10.644Z,99972.42
2018-08-19T06:17:40.217Z,99972.89
2018-08-19T06:20:09.760Z,99965.44
2018-08-19T06:22:40.317Z,99970.90
2018-08-19T06:25:10.844Z,99977.11
2018-08-19T06:27:45.443Z,99980.52
2018-08-19T06:30:15.758Z,99979.12
2018-08-19T06:32:45.518Z,99977.38
2018-08-19T06:35:15.246Z,99975.21
2018-08-19T06:37:44.859Z,99975.39
2018-08-19T06:40:17.238Z,99975.89
2018-08-19T06:42:46.889Z,99980.37
2018-08-19T06:45:16.607Z,99982.88
2018-08-19T06:47:46.323Z,99979.09
2018-08-19T06:50:38.982Z,99978.22
2018-08-19T06:53:13.756Z,99967.01
2018-08-19T06:55:43.412Z,99969.02
2018-08-19T06:58:13.059Z,99969.30
2018-08-19T07:00:42.684Z,99974.41
2018-08-19T07:03:12.331Z,99975.22
2018-08-19T07:05:41.838Z,99970.80
2018-08-19T07:08:11.429Z,99969.33
2018-08-19T07:10:42.106Z,99971.69
2018-08-19T07:13:13.902Z,99978.42
2018-08-19T07:15:44.519Z,99974.84
2018-08-19T07:18:15.371Z,99981.84
2018-08-19T07:20:45.474Z,99979.04
2018-08-19T07:23:15.083Z,99982.41
2018-08-19T07:25:45.629Z,99984.05
2018-08-19T07:28:16.743Z,99970.71
2018-08-19T07:30:46.324Z,99969.52
2018-08-19T07:33:15.915Z,99969.89
2018-08-19T07:35:45.419Z,99971.98
2018-08-19T07:38:14.975Z,99973.00
2018-08-19T07:40:44.483Z,99972.91
2018-08-19T07:43:14.083Z,99976.50
2018-08-19T07:45:43.664Z,99974.05
2018-08-19T07:48:13.199Z,99967.49
2018-08-19T07:50:42.706Z,99969.77
2018-08-19T07:53:12.240Z,99977.58
2018-08-19T07:55:41.873Z,99970.82
2018-08-19T07:58:11.435Z,99976.22
2018-08-19T08:00:41.876Z,99974.16
2018-08-19T08:03:11.671Z,99971.86
2018-08-19T08:05:46.272Z,99970.53
2018-08-19T08:08:15.818Z,99963.02
2018-08-19T08:10:45.382Z,99965.84
2018-08-19T08:13:15.016Z,99962.17
2018-08-19T08:15:49.617Z,99960.67
2018-08-19T08:18:19.279Z,99956.18
2018-08-19T08:20:48.944Z,99959.75
2018-08-19T08:23:22.924Z,99955.04
2018-08-19T08:25:52.555Z,99959.21
2018-08-19T08:28:22.263Z,99957.84
2018-08-19T08:30:51.836Z,99950.73
2018-08-19T08:33:21.559Z,99954.18
2018-08-19T08:35:55.349Z,99953.11
2018-08-19T08:38:24.883Z,99945.33
2018-08-19T08:40:54.984Z,99945.55
2018-08-19T08:43:24.571Z,99941.18
2018-08-19T08:45:56.837Z,99945.64
2018-08-19T08:48:26.739Z,99947.33
2018-08-19T08:50:56.379Z,99861.83
2018-08-19T08:53:31.312Z,99943.78
2018-08-19T08:56:00.975Z,99942.47
2018-08-19T08:58:30.570Z,99944.91
2018-08-19T09:01:00.444Z,99934.61
2018-08-19T09:03:30.147Z,99931.78
2018-08-19T09:05:59.850Z,99932.83
2018-08-19T09:08:29.518Z,99928.74
2018-08-19T09:11:00.248Z,99932.06
2018-08-19T09:13:29.883Z,99921.73
2018-08-19T09:15:59.472Z,99928.98
2018-08-19T09:18:28.959Z,99934.06
2018-08-19T09:20:58.575Z,99922.56
2018-08-19T09:23:28.573Z,99912.37
2018-08-19T09:25:58.178Z,99922.92
2018-08-19T09:28:27.755Z,99914.70
2018-08-19T09:30:57.340Z,99915.21
2018-08-19T09:33:26.923Z,99910.69
2018-08-19T09:35:56.540Z,99914.06
2018-08-19T09:38:26.191Z,99919.39
2018-08-19T09:40:55.731Z,99906.14
2018-08-19T09:43:25.315Z,99905.57
2018-08-19T09:45:55.048Z,99913.20
2018-08-19T09:48:24.566Z,99901.27
2018-08-19T09:50:56.611Z,99899.86
2018-08-19T09:53:26.161Z,99909.22
2018-08-19T09:56:00.863Z,99904.32
2018-08-19T09:58:30.416Z,99900.83
2018-08-19T10:01:04.887Z,99897.94
2018-08-19T10:03:34.435Z,99895.31
2018-08-19T10:06:04.105Z,99894.83
2018-08-19T10:08:33.723Z,99891.98
2018-08-19T10:11:03.355Z,99886.01
2018-08-19T10:13:33.062Z,99880.48
2018-08-19T10:16:02.531Z,99875.52
2018-08-19T10:18:32.124Z,99881.81
2018-08-19T10:21:05.722Z,99880.05
2018-08-19T10:23:35.215Z,99872.88
2018-08-19T10:26:04.783Z,99868.27
2018-08-19T10:28:34.275Z,99867.98
2018-08-19T10:31:04.484Z,99866.09
2018-08-19T10:33:33.976Z,99864.55
2018-08-19T10:36:03.559Z,99862.59
2018-08-19T10:38:33.067Z,99862.80
2018-08-19T10:41:05.661Z,99859.78
2018-08-19T10:43:35.372Z,99858.19
2018-08-19T10:46:05.016Z,99851.13
2018-08-19T10:48:34.532Z,99846.94
2018-08-19T10:51:04.166Z,99849.33
2018-08-19T10:53:33.807Z,99844.92
2018-08-19T10:56:04.027Z,99848.14
2018-08-19T10:58:33.747Z,99837.27
2018-08-19T11:01:03.396Z,99839.66
2018-08-19T11:03:33.041Z,99836.45
2018-08-19T11:06:02.573Z,99756.73
2018-08-19T11:08:32.322Z,99832.64
2018-08-19T11:11:02.560Z,99829.22
2018-08-19T11:13:32.239Z,99826.78
2018-08-19T11:16:01.745Z,99821.74
2018-08-19T11:18:38.353Z,99822.97
2018-08-19T11:21:11.506Z,99820.39
2018-08-19T11:23:42.551Z,99815.33
2018-08-19T11:26:12.710Z,99818.55
2018-08-19T11:28:46.439Z,99813.91
2018-08-19T11:31:23.194Z,99808.25
2018-08-19T11:33:53.548Z,99801.83
2018-08-19T11:36:30.852Z,99794.63
2018-08-19T11:39:00.592Z,99794.14
2018-08-19T11:41:32.015Z,99793.80
2018-08-19T11:44:09.494Z,99709.66
2018-08-19T11:46:39.104Z,99778.14
2018-08-19T11:49:10.159Z,99771.71
2018-08-19T11:51:52.852Z,99776.95
2018-08-19T11:54:23.300Z,99771.48
2018-08-19T11:57:00.718Z,99771.05
2018-08-19T11:59:35.275Z,99766.47
2018-08-19T12:02:06.000Z,99754.00
2018-08-19T12:04:35.678Z,99760.44
2018-08-19T12:07:05.383Z,99754.00
2018-08-19T12:09:35.092Z,99756.62
2018-08-19T12:12:04.647Z,99758.86
2018-08-19T12:14:35.507Z,99760.64
2018-08-19T12:17:09.652Z,99754.03
2018-08-19T12:19:40.378Z,99748.39
2018-08-19T12:22:10.190Z,99748.59
2018-08-19T12:24:46.551Z,99754.22
2018-08-19T12:27:22.724Z,99747.39
2018-08-19T12:30:01.045Z,99743.73
2018-08-19T12:32:30.628Z,99738.93
2018-08-19T12:35:01.146Z,99735.93
2018-08-19T12:37:32.029Z,99736.72
2018-08-19T12:40:01.858Z,99733.70
2018-08-19T12:42:32.246Z,99739.97
2018-08-19T12:45:06.411Z,99731.70
2018-08-19T12:47:36.415Z,99734.13
2018-08-19T12:50:08.740Z,99729.67
2018-08-19T12:52:38.265Z,99724.64
2018-08-19T12:55:09.526Z,99725.47
2018-08-19T12:57:39.934Z,99729.48
2018-08-19T13:00:18.996Z,99728.48
2018-08-19T13:02:50.072Z,99736.66
2018-08-19T13:05:20.278Z,99732.17
2018-08-19T13:07:49.994Z,99720.55
2018-08-19T13:10:19.763Z,99717.94
2018-08-19T13:12:52.891Z,99718.19
2018-08-19T13:15:23.279Z,99721.23
2018-08-19T13:17:53.039Z,99718.95
2018-08-19T13:20:22.671Z,99715.77
2018-08-19T13:22:59.706Z,99717.80
2018-08-19T13:25:29.642Z,99721.80
2018-08-19T13:27:59.228Z,99716.33
2018-08-19T13:30:28.835Z,99709.48
2018-08-19T13:32:58.434Z,99705.46
2018-08-19T13:35:27.983Z,99703.41
2018-08-19T13:37:57.628Z,99705.94
2018-08-19T13:40:27.195Z,99708.23
2018-08-19T13:42:56.751Z,99705.83
2018-08-19T13:45:27.283Z,99702.09
2018-08-19T13:47:56.793Z,99700.69
2018-08-19T13:50:26.381Z,99707.16
2018-08-19T13:52:55.926Z,99702.50
2018-08-19T13:55:25.526Z,99697.05
2018-08-19T13:57:55.102Z,99694.80
2018-08-19T14:00:28.856Z,99694.61
2018-08-19T14:02:59.852Z,99693.44
2018-08-19T14:05:29.403Z,99692.61
2018-08-19T14:07:58.949Z,99689.45
2018-08-19T14:10:28.560Z,99681.98
2018-08-19T14:12:58.144Z,99682.13
2018-08-19T14:15:27.667Z,99686.53
2018-08-19T14:17:57.336Z,99681.82
2018-08-19T14:20:26.867Z,99677.98
2018-08-19T14:22:56.420Z,99675.79
2018-08-19T14:25:25.970Z,99679.28
2018-08-19T14:27:55.463Z,99669.69
2018-08-19T14:30:25.081Z,99671.97
2018-08-19T14:32:54.644Z,99663.20
2018-08-19T14:35:24.186Z,99670.93
2018-08-19T14:37:53.767Z,99673.20
2018-08-19T14:40:23.578Z,99670.67
2018-08-19T14:42:52.994Z,99669.94
2018-08-19T14:45:22.571Z,99672.38
2018-08-19T14:47:52.063Z,99672.38
2018-08-19T14:50:21.747Z,99668.64
2018-08-19T14:52:51.344Z,99664.56
2018-08-19T14:55:20.891Z,99673.30
2018-08-19T14:57:50.402Z,99665.44
2018-08-19T15:00:19.947Z,99659.13
2018-08-19T15:02:49.527Z,99662.48
2018-08-19T15:05:20.538Z,99662.63
2018-08-19T15:07:50.306Z,99662.22
2018-08-19T15:10:26.374Z,99669.58
2018-08-19T15:12:55.925Z,99709.34
2018-08-19T15:15:25.527Z,99724.27
2018-08-19T15:18:01.701Z,99760.73
2018-08-19T15:20:33.650Z,99752.48
2018-08-19T15:23:15.787Z,99747.93
2018-08-19T15:25:45.512Z,99647.44
2018-08-19T15:28:15.459Z,99775.13
2018-08-19T15:30:44.975Z,99755.22
2018-08-19T15:33:15.354Z,99752.31
2018-08-19T15:35:45.019Z,99748.87
2018-08-19T15:38:14.632Z,99746.23
2018-08-19T15:40:46.189Z,99769.11
2018-08-19T15:43:15.764Z,99758.06
2018-08-19T15:45:45.786Z,99756.84
2018-08-19T15:48:15.412Z,99742.33
2018-08-19T15:50:45.028Z,99728.84
2018-08-19T15:53:14.697Z,99724.97
2018-08-19T15:55:44.308Z,99713.91
2018-08-19T15:58:13.844Z,99711.95
2018-08-19T16:00:43.388Z,99706.67
2018-08-19T16:03:13.446Z,99695.85
2018-08-19T16:05:42.972Z,99699.55
2018-08-19T16:08:12.487Z,99597.11
2018-08-19T16:10:42.859Z,99687.77
2018-08-19T16:13:12.802Z,99679.16
2018-08-19T16:15:42.476Z,99685.11
2018-08-19T16:18:12.097Z,99683.55
2018-08-19T16:20:44.596Z,99680.85
2018-08-19T16:23:14.204Z,99677.59
2018-08-19T16:25:43.779Z,99679.89
2018-08-19T16:28:13.389Z,99682.43
2018-08-19T16:30:42.937Z,99684.66
2018-08-19T16:33:12.475Z,99685.45
2018-08-19T16:35:41.979Z,99677.42
2018-08-19T16:38:11.624Z,99685.19
2018-08-19T16:40:41.215Z,99684.25
2018-08-19T16:43:10.767Z,99693.69
2018-08-19T16:45:40.375Z,99699.14
2018-08-19T16:48:09.980Z,99699.88
2018-08-19T16:50:39.600Z,99702.98
2018-08-19T16:53:09.147Z,99698.45
2018-08-19T16:55:38.715Z,99705.69
2018-08-19T16:58:08.270Z,99706.48
2018-08-19T17:00:37.807Z,99706.38
2018-08-19T17:03:40.858Z,99710.69
2018-08-19T17:06:12.763Z,99711.04
2018-08-19T17:08:42.704Z,99713.83
2018-08-19T17:11:13.315Z,99715.94
2018-08-19T17:13:42.904Z,99716.50
2018-08-19T17:16:12.499Z,99716.17
2018-08-19T17:18:42.052Z,99725.22
2018-08-19T17:21:11.652Z,99736.96
2018-08-19T17:23:41.150Z,99764.03
2018-08-19T17:26:18.599Z,99755.45
2018-08-19T17:28:48.111Z,99743.38
2018-08-19T17:31:17.652Z,99760.81
2018-08-19T17:33:47.187Z,99757.91
2018-08-19T17:36:37.302Z,99768.36
2018-08-19T17:39:10.106Z,99771.45
2018-08-19T17:41:39.674Z,99765.17
2018-08-19T17:44:09.247Z,99771.31
2018-08-19T17:46:38.752Z,99771.56
2018-08-19T17:49:12.783Z,99775.14
2018-08-19T17:51:42.327Z,99771.55
2018-08-19T17:54:27.114Z,99778.16
2018-08-19T17:56:57.820Z,99775.94
2018-08-19T17:59:27.448Z,99774.09
2018-08-19T18:01:57.081Z,99775.02
2018-08-19T18:04:33.375Z,99774.19
2018-08-19T18:07:02.883Z,99776.97
2018-08-19T18:09:32.552Z,99775.48
2018-08-19T18:12:05.144Z,99776.87
2018-08-19T18:14:35.492Z,99783.10
2018-08-19T18:17:05.081Z,99786.59
2018-08-19T18:19:35.119Z,99785.53
2018-08-19T18:22:04.796Z,99787.03
2018-08-19T18:24:34.405Z,99783.79
2018-08-19T18:27:03.996Z,99793.25
2018-08-19T18:29:44.459Z,99798.20
2018-08-19T18:32:14.080Z,99797.16
2018-08-19T18:34:43.608Z,99802.23
2018-08-19T18:37:13.163Z,99798.66
2018-08-19T18:39:44.886Z,99796.55
2018-08-19T18:42:21.927Z,99797.71
2018-08-19T18:44:51.543Z,99800.69
2018-08-19T18:47:21.153Z,99803.00
2018-08-19T18:49:50.991Z,99803.52
2018-08-19T18:52:20.507Z,99801.19
2018-08-19T18:54:50.035Z,99801.55
2018-08-19T18:57:19.624Z,99807.08
2018-08-19T18:59:49.162Z,99807.08
2018-08-19T19:02:18.720Z,99811.69
2018-08-19T19:04:48.243Z,99807.95
2018-08-19T19:07:17.799Z,99807.67
2018-08-19T19:09:51.311Z,99802.59
2018-08-19T19:12:22.071Z,99810.45
2018-08-19T19:14:51.599Z,99807.45
2018-08-19T19:17:21.113Z,99811.03
2018-08-19T19:19:50.973Z,99812.90
2018-08-19T19:22:20.463Z,99813.81
2018-08-19T19:24:52.782Z,99807.99
2018-08-19T19:27:22.297Z,99807.99
2018-08-19T19:29:56.992Z,99816.39
2018-08-19T19:32:26.567Z,99812.11
2018-08-19T19:34:57.215Z,99813.58
2018-08-19T19:37:26.703Z,99810.42
2018-08-19T19:40:01.349Z,99812.50
2018-08-19T19:42:30.896Z,99805.41
2018-08-19T19:45:00.716Z,99807.48
2018-08-19T19:47:30.243Z,99801.78
2018-08-19T19:50:00.192Z,99804.18
2018-08-19T19:52:30.214Z,99803.70
2018-08-19T19:54:59.731Z,99805.16
2018-08-19T19:57:29.259Z,99807.34
2018-08-19T19:59:58.763Z,99803.27
2018-08-19T20:02:30.135Z,99803.70
2018-08-19T20:05:00.263Z,99803.70
2018-08-19T20:07:29.799Z,99800.19
2018-08-19T20:09:59.318Z,99806.48
2018-08-19T20:12:30.038Z,99804.42
2018-08-19T20:15:01.736Z,99813.17
2018-08-19T20:17:31.367Z,99814.07
2018-08-19T20:20:00.851Z,99814.98
2018-08-19T20:22:30.479Z,99808.79
2018-08-19T20:25:00.030Z,99807.83
2018-08-19T20:27:29.668Z,99806.22
2018-08-19T20:29:59.263Z,99808.50
2018-08-19T20:32:28.881Z,99809.83
2018-08-19T20:34:58.532Z,99810.09
2018-08-19T20:37:30.053Z,99811.16
2018-08-19T20:39:59.554Z,99814.19
2018-08-19T20:42:29.181Z,99827.42
2018-08-19T20:44:58.679Z,99828.50
2018-08-19T20:47:28.289Z,99829.17
2018-08-19T20:49:57.895Z,99832.16
2018-08-19T20:52:45.266Z,99831.93
2018-08-19T20:55:15.126Z,99831.28
2018-08-19T20:57:44.973Z,99842.04
2018-08-19T21:00:14.632Z,99842.83
2018-08-19T21:02:44.208Z,99831.98
2018-08-19T21:05:13.743Z,99826.53
2018-08-19T21:07:44.760Z,99836.71
2018-08-19T21:10:14.387Z,99832.84
2018-08-19T21:12:43.940Z,99833.95
2018-08-19T21:15:13.631Z,99828.19
2018-08-19T21:17:43.131Z,99836.23
2018-08-19T21:20:12.691Z,99831.85
2018-08-19T21:22:42.190Z,99837.00
2018-08-19T21:25:11.695Z,99836.97
2018-08-19T21:27:41.188Z,99833.81
2018-08-19T21:30:10.872Z,99831.44
2018-08-19T21:32:40.329Z,99831.44
2018-08-19T21:35:09.917Z,99828.91
2018-08-19T21:37:39.408Z,99835.73
2018-08-19T21:40:09.053Z,99835.83
2018-08-19T21:42:51.115Z,99837.38
2018-08-19T21:45:20.992Z,99840.87
2018-08-19T21:47:50.615Z,99835.83
2018-08-19T21:50:20.131Z,99830.87
2018-08-19T21:52:59.843Z,99834.30
2018-08-19T21:55:31.943Z,99835.59
2018-08-19T21:58:02.086Z,99831.67
2018-08-19T22:00:34.835Z,99838.36
2018-08-19T22:03:09.471Z,99830.55
2018-08-19T22:05:39.108Z,99840.06
2018-08-19T22:08:08.744Z,99831.58
2018-08-19T22:10:38.401Z,99828.45
2018-08-19T22:13:07.936Z,99831.03
2018-08-19T22:15:38.422Z,99825.99
2018-08-19T22:18:09.569Z,99822.56
2018-08-19T22:20:39.267Z,99820.05
2018-08-19T22:23:08.806Z,99823.20
2018-08-19T22:25:38.409Z,99821.24
2018-08-19T22:28:07.965Z,99819.84
2018-08-19T22:30:37.473Z,99823.77
2018-08-19T22:33:07.026Z,99814.59
2018-08-19T22:35:36.516Z,99809.05
2018-08-19T22:38:10.187Z,99809.15
2018-08-19T22:40:39.664Z,99806.73
2018-08-19T22:43:09.303Z,99801.72
2018-08-19T22:45:38.870Z,99794.98
2018-08-19T22:48:08.476Z,99795.17
2018-08-19T22:50:38.084Z,99795.17
2018-08-19T22:53:07.639Z,99797.72
2018-08-19T22:55:37.196Z,99696.87
2018-08-19T22:58:11.860Z,99803.85
2018-08-19T23:00:41.563Z,99799.64
2018-08-19T23:03:11.286Z,99794.11
2018-08-19T23:05:40.835Z,99789.55
2018-08-19T23:08:11.296Z,99793.35
2018-08-19T23:10:40.873Z,99786.14
2018-08-19T23:15:25.217Z,99782.99
2018-08-19T23:17:54.699Z,99777.34
2018-08-19T23:20:24.271Z,99774.62
2018-08-19T23:22:53.831Z,99771.86
2018-08-19T23:25:23.470Z,99771.31
2018-08-19T23:27:52.971Z,99777.70
2018-08-19T23:30:22.526Z,99774.34
2018-08-19T23:32:52.091Z,99775.24
2018-08-19T23:35:21.632Z,99771.87
2018-08-19T23:37:51.199Z,99777.83
2018-08-19T23:40:20.743Z,99785.16
2018-08-19T23:42:50.309Z,99784.66
2018-08-19T23:45:19.843Z,99783.36
2018-08-19T23:47:49.339Z,99787.77
2018-08-19T23:50:18.908Z,99777.11
2018-08-19T23:52:48.399Z,99775.72
2018-08-19T23:55:17.972Z,99772.07
2018-08-19T23:57:47.466Z,99780.59
